Terminal Aerodrome Forecast
Issued by NWS Melbourne, FL

Home | Current Version | Previous Version | Text Only | Print | Product List | Glossary On
Versions: 1 2 3 4 5 6 7 8 9 10 11 12 13 14 15 16 17 18 19 20 21 22 23 24 25 26 27 28 29 30
000
FTUS42 KMLB 211100 RRA
TAFMCO
TAF
KMCO 211141Z 2112/2212 36004KT P6SM BKN008
      TEMPO 2112/2113 5SM BR OVC005
     FM211400 VRB03KT P6SM FEW025 BKN250
     FM211800 18004KT P6SM VCSH SCT030 BKN100
     FM220100 18003KT P6SM FEW035 BKN120=

USA.gov is the U.S. government's official web portal to all federal, state and local government web resources and services.